sensor_id;sensor_type;location;lat;lon;timestamp;temperature;humidity
48007;DHT22;33771;48.180;11.400;2022-12-15T00:01:23;-0.50;99.90
48007;DHT22;33771;48.180;11.400;2022-12-15T00:04:07;-0.50;99.90
48007;DHT22;33771;48.180;11.400;2022-12-15T00:06:51;-0.60;99.90
48007;DHT22;33771;48.180;11.400;2022-12-15T00:09:35;-0.60;99.90
48007;DHT22;33771;48.180;11.400;2022-12-15T00:12:20;-0.70;99.90
48007;DHT22;33771;48.180;11.400;2022-12-15T00:15:04;-0.80;99.90
48007;DHT22;33771;48.180;11.400;2022-12-15T00:17:48;-0.80;99.90
48007;DHT22;33771;48.180;11.400;2022-12-15T00:20:33;-0.80;99.90
48007;DHT22;33771;48.180;11.400;2022-12-15T00:23:17;-0.90;99.90
48007;DHT22;33771;48.180;11.400;2022-12-15T00:26:01;-0.90;99.90
48007;DHT22;33771;48.180;11.400;2022-12-15T00:28:46;-0.90;99.90
48007;DHT22;33771;48.180;11.400;2022-12-15T00:31:30;-1.00;99.90
48007;DHT22;33771;48.180;11.400;2022-12-15T00:34:14;-1.00;99.90
48007;DHT22;33771;48.180;11.400;2022-12-15T00:36:58;-1.00;99.90
48007;DHT22;33771;48.180;11.400;2022-12-15T00:39:42;-1.00;99.90
48007;DHT22;33771;48.180;11.400;2022-12-15T00:42:08;-1.10;99.90
48007;DHT22;33771;48.180;11.400;2022-12-15T00:44:34;-1.10;99.90
48007;DHT22;33771;48.180;11.400;2022-12-15T00:47:02;-1.10;99.90
48007;DHT22;33771;48.180;11.400;2022-12-15T00:49:29;-1.10;99.90
48007;DHT22;33771;48.180;11.400;2022-12-15T00:52:15;-1.00;99.90
48007;DHT22;33771;48.180;11.400;2022-12-15T00:54:59;-1.00;99.90
48007;DHT22;33771;48.180;11.400;2022-12-15T00:57:43;-1.00;99.90
48007;DHT22;33771;48.180;11.400;2022-12-15T01:00:28;-1.00;99.90
48007;DHT22;33771;48.180;11.400;2022-12-15T01:03:18;-1.00;99.90
48007;DHT22;33771;48.180;11.400;2022-12-15T01:06:07;-1.00;99.90
48007;DHT22;33771;48.180;11.400;2022-12-15T01:08:52;-1.00;99.90
48007;DHT22;33771;48.180;11.400;2022-12-15T01:11:36;-1.00;99.90
48007;DHT22;33771;48.180;11.400;2022-12-15T01:14:20;-1.10;99.90
48007;DHT22;33771;48.180;11.400;2022-12-15T01:17:05;-1.00;99.90
48007;DHT22;33771;48.180;11.400;2022-12-15T01:19:49;-1.10;99.90
48007;DHT22;33771;48.180;11.400;2022-12-15T01:22:36;-1.00;99.90
48007;DHT22;33771;48.180;11.400;2022-12-15T01:25:02;-1.00;99.90
48007;DHT22;33771;48.180;11.400;2022-12-15T01:27:28;-1.00;99.90
48007;DHT22;33771;48.180;11.400;2022-12-15T01:29:53;-1.10;99.90
48007;DHT22;33771;48.180;11.400;2022-12-15T01:32:19;-1.00;99.90
48007;DHT22;33771;48.180;11.400;2022-12-15T01:34:44;-1.00;99.90
48007;DHT22;33771;48.180;11.400;2022-12-15T01:37:10;-1.00;99.90
48007;DHT22;33771;48.180;11.400;2022-12-15T01:39:36;-1.00;99.90
48007;DHT22;33771;48.180;11.400;2022-12-15T01:42:20;-1.00;99.90
48007;DHT22;33771;48.180;11.400;2022-12-15T01:44:49;-1.00;99.90
48007;DHT22;33771;48.180;11.400;2022-12-15T01:47:15;-1.00;99.90
48007;DHT22;33771;48.180;11.400;2022-12-15T01:49:41;-1.00;99.90
48007;DHT22;33771;48.180;11.400;2022-12-15T01:52:08;-1.00;99.90
48007;DHT22;33771;48.180;11.400;2022-12-15T01:54:40;-1.00;99.90
48007;DHT22;33771;48.180;11.400;2022-12-15T01:57:12;-1.00;99.90
48007;DHT22;33771;48.180;11.400;2022-12-15T01:59:43;-1.00;99.90
48007;DHT22;33771;48.180;11.400;2022-12-15T02:02:12;-1.00;99.90
48007;DHT22;33771;48.180;11.400;2022-12-15T02:04:39;-1.00;99.90
48007;DHT22;33771;48.180;11.400;2022-12-15T02:07:08;-1.00;99.90
48007;DHT22;33771;48.180;11.400;2022-12-15T02:09:35;-1.10;99.90
48007;DHT22;33771;48.180;11.400;2022-12-15T02:15:01;-1.10;99.90
48007;DHT22;33771;48.180;11.400;2022-12-15T02:17:50;-1.10;99.90
48007;DHT22;33771;48.180;11.400;2022-12-15T02:20:45;-1.10;99.90
48007;DHT22;33771;48.180;11.400;2022-12-15T02:31:59;-1.20;99.90
48007;DHT22;33771;48.180;11.400;2022-12-15T02:34:42;-1.10;99.90
48007;DHT22;33771;48.180;11.400;2022-12-15T02:39:40;-1.20;99.90
48007;DHT22;33771;48.180;11.400;2022-12-15T02:42:10;-1.20;99.90
48007;DHT22;33771;48.180;11.400;2022-12-15T02:44:55;-1.10;99.90
48007;DHT22;33771;48.180;11.400;2022-12-15T02:50:31;-1.10;99.90
48007;DHT22;33771;48.180;11.400;2022-12-15T02:59:08;-1.10;99.90
48007;DHT22;33771;48.180;11.400;2022-12-15T03:01:35;-1.20;99.90
48007;DHT22;33771;48.180;11.400;2022-12-15T03:04:05;-1.10;99.90
48007;DHT22;33771;48.180;11.400;2022-12-15T03:06:32;-1.10;99.90
48007;DHT22;33771;48.180;11.400;2022-12-15T03:08:58;-1.10;99.90
48007;DHT22;33771;48.180;11.400;2022-12-15T03:11:23;-1.10;99.90
48007;DHT22;33771;48.180;11.400;2022-12-15T03:13:49;-1.10;99.90
48007;DHT22;33771;48.180;11.400;2022-12-15T03:16:15;-1.20;99.90
48007;DHT22;33771;48.180;11.400;2022-12-15T03:18:41;-1.20;99.90
48007;DHT22;33771;48.180;11.400;2022-12-15T03:21:06;-1.20;99.90
48007;DHT22;33771;48.180;11.400;2022-12-15T03:23:32;-1.20;99.90
48007;DHT22;33771;48.180;11.400;2022-12-15T03:25:58;-1.20;99.90
48007;DHT22;33771;48.180;11.400;2022-12-15T03:28:24;-1.30;99.90
48007;DHT22;33771;48.180;11.400;2022-12-15T03:30:49;-1.30;99.90
48007;DHT22;33771;48.180;11.400;2022-12-15T03:33:15;-1.30;99.90
48007;DHT22;33771;48.180;11.400;2022-12-15T03:35:41;-1.30;99.90
48007;DHT22;33771;48.180;11.400;2022-12-15T03:38:06;-1.30;99.90
48007;DHT22;33771;48.180;11.400;2022-12-15T03:40:32;-1.30;99.90
48007;DHT22;33771;48.180;11.400;2022-12-15T03:42:57;-1.30;99.90
48007;DHT22;33771;48.180;11.400;2022-12-15T03:45:25;-1.30;99.90
48007;DHT22;33771;48.180;11.400;2022-12-15T03:47:52;-1.30;99.90
48007;DHT22;33771;48.180;11.400;2022-12-15T03:50:20;-1.30;99.90
48007;DHT22;33771;48.180;11.400;2022-12-15T03:52:55;-1.30;99.90
48007;DHT22;33771;48.180;11.400;2022-12-15T03:55:22;-1.30;99.90
48007;DHT22;33771;48.180;11.400;2022-12-15T03:57:48;-1.30;99.90
48007;DHT22;33771;48.180;11.400;2022-12-15T04:00:14;-1.30;99.90
48007;DHT22;33771;48.180;11.400;2022-12-15T04:02:41;-1.30;99.90
48007;DHT22;33771;48.180;11.400;2022-12-15T04:05:07;-1.40;99.90
48007;DHT22;33771;48.180;11.400;2022-12-15T04:07:36;-1.40;99.90
48007;DHT22;33771;48.180;11.400;2022-12-15T04:10:02;-1.40;99.90
48007;DHT22;33771;48.180;11.400;2022-12-15T04:12:28;-1.40;99.90
48007;DHT22;33771;48.180;11.400;2022-12-15T04:14:53;-1.40;99.90
48007;DHT22;33771;48.180;11.400;2022-12-15T04:17:19;-1.40;99.90
48007;DHT22;33771;48.180;11.400;2022-12-15T04:19:45;-1.40;99.90
48007;DHT22;33771;48.180;11.400;2022-12-15T04:22:29;-1.50;99.90
48007;DHT22;33771;48.180;11.400;2022-12-15T04:24:54;-1.50;99.90
48007;DHT22;33771;48.180;11.400;2022-12-15T04:27:38;-1.50;99.90
48007;DHT22;33771;48.180;11.400;2022-12-15T04:30:22;-1.50;99.90
48007;DHT22;33771;48.180;11.400;2022-12-15T04:33:07;-1.60;99.90
48007;DHT22;33771;48.180;11.400;2022-12-15T04:35:52;-1.60;99.90
48007;DHT22;33771;48.180;11.400;2022-12-15T04:38:36;-1.60;99.90
48007;DHT22;33771;48.180;11.400;2022-12-15T04:41:21;-1.60;99.90
48007;DHT22;33771;48.180;11.400;2022-12-15T04:44:06;-1.60;99.90
48007;DHT22;33771;48.180;11.400;2022-12-15T04:46:51;-1.60;99.90
48007;DHT22;33771;48.180;11.400;2022-12-15T04:49:35;-1.60;99.90
48007;DHT22;33771;48.180;11.400;2022-12-15T04:52:19;-1.60;99.90
48007;DHT22;33771;48.180;11.400;2022-12-15T04:55:03;-1.60;99.90
48007;DHT22;33771;48.180;11.400;2022-12-15T04:57:48;-1.60;99.90
48007;DHT22;33771;48.180;11.400;2022-12-15T05:00:32;-1.70;99.90
48007;DHT22;33771;48.180;11.400;2022-12-15T05:03:16;-1.70;99.90
48007;DHT22;33771;48.180;11.400;2022-12-15T05:06:00;-1.70;99.90
48007;DHT22;33771;48.180;11.400;2022-12-15T05:08:44;-1.70;99.90
48007;DHT22;33771;48.180;11.400;2022-12-15T05:11:28;-1.70;99.90
48007;DHT22;33771;48.180;11.400;2022-12-15T05:14:12;-1.70;99.90
48007;DHT22;33771;48.180;11.400;2022-12-15T05:16:57;-1.70;99.90
48007;DHT22;33771;48.180;11.400;2022-12-15T05:19:41;-1.70;99.90
48007;DHT22;33771;48.180;11.400;2022-12-15T05:22:25;-1.70;99.90
48007;DHT22;33771;48.180;11.400;2022-12-15T05:25:09;-1.70;99.90
48007;DHT22;33771;48.180;11.400;2022-12-15T05:27:53;-1.70;99.90
48007;DHT22;33771;48.180;11.400;2022-12-15T05:30:37;-1.70;99.90
48007;DHT22;33771;48.180;11.400;2022-12-15T05:33:21;-1.70;99.90
48007;DHT22;33771;48.180;11.400;2022-12-15T05:35:47;-1.70;99.90
48007;DHT22;33771;48.180;11.400;2022-12-15T05:38:12;-1.70;99.90
48007;DHT22;33771;48.180;11.400;2022-12-15T05:40:38;-1.70;99.90
48007;DHT22;33771;48.180;11.400;2022-12-15T05:43:03;-1.70;99.90
48007;DHT22;33771;48.180;11.400;2022-12-15T05:45:29;-1.60;99.90
48007;DHT22;33771;48.180;11.400;2022-12-15T05:47:54;-1.60;99.90
48007;DHT22;33771;48.180;11.400;2022-12-15T05:50:21;-1.60;99.90
48007;DHT22;33771;48.180;11.400;2022-12-15T05:52:47;-1.60;99.90
48007;DHT22;33771;48.180;11.400;2022-12-15T05:55:15;-1.60;99.90
48007;DHT22;33771;48.180;11.400;2022-12-15T05:57:41;-1.70;99.90
48007;DHT22;33771;48.180;11.400;2022-12-15T06:00:07;-1.70;99.90
48007;DHT22;33771;48.180;11.400;2022-12-15T06:02:33;-1.70;99.90
48007;DHT22;33771;48.180;11.400;2022-12-15T06:04:58;-1.70;99.90
48007;DHT22;33771;48.180;11.400;2022-12-15T06:07:24;-1.70;99.90
48007;DHT22;33771;48.180;11.400;2022-12-15T06:09:49;-1.70;99.90
48007;DHT22;33771;48.180;11.400;2022-12-15T06:12:15;-1.70;99.90
48007;DHT22;33771;48.180;11.400;2022-12-15T06:14:41;-1.80;99.90
48007;DHT22;33771;48.180;11.400;2022-12-15T06:17:07;-1.80;99.90
48007;DHT22;33771;48.180;11.400;2022-12-15T06:19:32;-1.80;99.90
48007;DHT22;33771;48.180;11.400;2022-12-15T06:21:58;-1.80;99.90
48007;DHT22;33771;48.180;11.400;2022-12-15T06:24:24;-1.80;99.90
48007;DHT22;33771;48.180;11.400;2022-12-15T06:26:50;-1.80;99.90
48007;DHT22;33771;48.180;11.400;2022-12-15T06:29:16;-1.80;99.90
48007;DHT22;33771;48.180;11.400;2022-12-15T06:31:42;-1.80;99.90
48007;DHT22;33771;48.180;11.400;2022-12-15T06:34:10;-1.80;99.90
48007;DHT22;33771;48.180;11.400;2022-12-15T06:36:36;-1.80;99.90
48007;DHT22;33771;48.180;11.400;2022-12-15T06:39:05;-1.80;99.90
48007;DHT22;33771;48.180;11.400;2022-12-15T06:41:31;-1.80;99.90
48007;DHT22;33771;48.180;11.400;2022-12-15T06:43:58;-1.80;99.90
48007;DHT22;33771;48.180;11.400;2022-12-15T06:46:25;-1.80;99.90
48007;DHT22;33771;48.180;11.400;2022-12-15T06:48:50;-1.80;99.90
48007;DHT22;33771;48.180;11.400;2022-12-15T06:51:17;-1.80;99.90
48007;DHT22;33771;48.180;11.400;2022-12-15T06:53:44;-1.80;99.90
48007;DHT22;33771;48.180;11.400;2022-12-15T06:56:23;-1.90;99.90
48007;DHT22;33771;48.180;11.400;2022-12-15T06:58:50;-1.90;99.90
48007;DHT22;33771;48.180;11.400;2022-12-15T07:01:17;-1.90;99.90
48007;DHT22;33771;48.180;11.400;2022-12-15T07:03:43;-1.90;99.90
48007;DHT22;33771;48.180;11.400;2022-12-15T07:06:11;-1.80;99.90
48007;DHT22;33771;48.180;11.400;2022-12-15T07:08:37;-1.80;99.90
48007;DHT22;33771;48.180;11.400;2022-12-15T07:11:08;-1.80;99.90
48007;DHT22;33771;48.180;11.400;2022-12-15T07:13:34;-1.80;99.90
48007;DHT22;33771;48.180;11.400;2022-12-15T07:16:01;-1.80;99.90
48007;DHT22;33771;48.180;11.400;2022-12-15T07:18:28;-1.80;99.90
48007;DHT22;33771;48.180;11.400;2022-12-15T07:20:54;-1.80;99.90
48007;DHT22;33771;48.180;11.400;2022-12-15T07:23:20;-1.80;99.90
48007;DHT22;33771;48.180;11.400;2022-12-15T07:25:46;-1.80;99.90
48007;DHT22;33771;48.180;11.400;2022-12-15T07:28:11;-1.80;99.90
48007;DHT22;33771;48.180;11.400;2022-12-15T07:30:37;-1.80;99.90
48007;DHT22;33771;48.180;11.400;2022-12-15T07:33:03;-1.70;99.90
48007;DHT22;33771;48.180;11.400;2022-12-15T07:35:30;-1.70;99.90
48007;DHT22;33771;48.180;11.400;2022-12-15T07:37:55;-1.70;99.90
48007;DHT22;33771;48.180;11.400;2022-12-15T07:40:21;-1.70;99.90
48007;DHT22;33771;48.180;11.400;2022-12-15T07:42:47;-1.70;99.90
48007;DHT22;33771;48.180;11.400;2022-12-15T07:45:13;-1.70;99.90
48007;DHT22;33771;48.180;11.400;2022-12-15T07:47:39;-1.70;99.90
48007;DHT22;33771;48.180;11.400;2022-12-15T07:50:05;-1.60;99.90
48007;DHT22;33771;48.180;11.400;2022-12-15T07:52:30;-1.60;99.90
48007;DHT22;33771;48.180;11.400;2022-12-15T07:54:56;-1.60;99.90
48007;DHT22;33771;48.180;11.400;2022-12-15T07:57:22;-1.60;99.90
48007;DHT22;33771;48.180;11.400;2022-12-15T07:59:48;-1.50;99.90
48007;DHT22;33771;48.180;11.400;2022-12-15T08:02:14;-1.50;99.90
48007;DHT22;33771;48.180;11.400;2022-12-15T08:04:40;-1.50;99.90
48007;DHT22;33771;48.180;11.400;2022-12-15T08:07:06;-1.40;99.90
48007;DHT22;33771;48.180;11.400;2022-12-15T08:09:32;-1.40;99.90
48007;DHT22;33771;48.180;11.400;2022-12-15T08:11:57;-1.30;99.90
48007;DHT22;33771;48.180;11.400;2022-12-15T08:14:23;-1.30;99.90
48007;DHT22;33771;48.180;11.400;2022-12-15T08:16:49;-1.20;99.90
48007;DHT22;33771;48.180;11.400;2022-12-15T08:19:16;-1.20;99.90
48007;DHT22;33771;48.180;11.400;2022-12-15T08:21:43;-1.20;99.90
48007;DHT22;33771;48.180;11.400;2022-12-15T08:24:13;-1.20;99.90
48007;DHT22;33771;48.180;11.400;2022-12-15T08:26:40;-1.20;99.90
48007;DHT22;33771;48.180;11.400;2022-12-15T08:29:08;-1.10;99.90
48007;DHT22;33771;48.180;11.400;2022-12-15T08:31:35;-1.10;99.90
48007;DHT22;33771;48.180;11.400;2022-12-15T08:34:04;-1.10;99.90
48007;DHT22;33771;48.180;11.400;2022-12-15T08:36:30;-1.20;99.90
48007;DHT22;33771;48.180;11.400;2022-12-15T08:38:56;-1.20;99.90
48007;DHT22;33771;48.180;11.400;2022-12-15T08:41:24;-1.20;99.90
48007;DHT22;33771;48.180;11.400;2022-12-15T08:43:52;-1.20;99.90
48007;DHT22;33771;48.180;11.400;2022-12-15T08:46:23;-1.20;99.90
48007;DHT22;33771;48.180;11.400;2022-12-15T08:48:49;-1.20;99.90
48007;DHT22;33771;48.180;11.400;2022-12-15T08:51:15;-1.20;99.90
48007;DHT22;33771;48.180;11.400;2022-12-15T08:53:41;-1.20;99.90
48007;DHT22;33771;48.180;11.400;2022-12-15T08:56:15;-1.20;99.90
48007;DHT22;33771;48.180;11.400;2022-12-15T08:58:42;-1.10;99.90
48007;DHT22;33771;48.180;11.400;2022-12-15T09:01:12;-1.10;99.90
48007;DHT22;33771;48.180;11.400;2022-12-15T09:03:38;-1.10;99.90
48007;DHT22;33771;48.180;11.400;2022-12-15T09:06:07;-1.00;99.90
48007;DHT22;33771;48.180;11.400;2022-12-15T09:08:33;-1.10;99.90
48007;DHT22;33771;48.180;11.400;2022-12-15T09:11:00;-1.10;99.90
48007;DHT22;33771;48.180;11.400;2022-12-15T09:13:26;-1.00;99.90
48007;DHT22;33771;48.180;11.400;2022-12-15T09:15:59;-1.00;99.90
48007;DHT22;33771;48.180;11.400;2022-12-15T09:18:26;-1.00;99.90
48007;DHT22;33771;48.180;11.400;2022-12-15T09:20:51;-1.00;99.90
48007;DHT22;33771;48.180;11.400;2022-12-15T09:23:18;-1.00;99.90
48007;DHT22;33771;48.180;11.400;2022-12-15T09:25:44;-1.00;99.90
48007;DHT22;33771;48.180;11.400;2022-12-15T09:28:12;-1.00;99.90
48007;DHT22;33771;48.180;11.400;2022-12-15T09:30:37;-1.00;99.90
48007;DHT22;33771;48.180;11.400;2022-12-15T09:33:03;-1.10;99.90
48007;DHT22;33771;48.180;11.400;2022-12-15T09:35:29;-1.00;99.90
48007;DHT22;33771;48.180;11.400;2022-12-15T09:37:55;-1.10;99.90
48007;DHT22;33771;48.180;11.400;2022-12-15T09:40:21;-1.00;99.90
48007;DHT22;33771;48.180;11.400;2022-12-15T09:42:52;-1.00;99.90
48007;DHT22;33771;48.180;11.400;2022-12-15T09:45:24;-1.00;99.90
48007;DHT22;33771;48.180;11.400;2022-12-15T09:48:03;-1.00;99.90
48007;DHT22;33771;48.180;11.400;2022-12-15T09:50:36;-1.00;99.90
48007;DHT22;33771;48.180;11.400;2022-12-15T09:53:04;-1.00;99.90
48007;DHT22;33771;48.180;11.400;2022-12-15T09:55:33;-0.90;99.90
48007;DHT22;33771;48.180;11.400;2022-12-15T10:00:39;-0.80;99.90
48007;DHT22;33771;48.180;11.400;2022-12-15T10:03:24;-0.80;99.90
48007;DHT22;33771;48.180;11.400;2022-12-15T10:08:28;-0.70;99.90
48007;DHT22;33771;48.180;11.400;2022-12-15T10:11:00;-0.70;99.90
48007;DHT22;33771;48.180;11.400;2022-12-15T10:13:44;-0.60;99.90
48007;DHT22;33771;48.180;11.400;2022-12-15T10:16:25;-0.60;99.90
48007;DHT22;33771;48.180;11.400;2022-12-15T10:19:28;-0.50;99.90
48007;DHT22;33771;48.180;11.400;2022-12-15T10:21:56;-0.40;99.90
48007;DHT22;33771;48.180;11.400;2022-12-15T10:24:23;-0.40;99.90
48007;DHT22;33771;48.180;11.400;2022-12-15T10:27:01;-0.40;99.90
48007;DHT22;33771;48.180;11.400;2022-12-15T10:34:54;-0.20;99.90
48007;DHT22;33771;48.180;11.400;2022-12-15T10:37:20;-0.10;99.90
48007;DHT22;33771;48.180;11.400;2022-12-15T10:39:47;0.00;99.90
48007;DHT22;33771;48.180;11.400;2022-12-15T10:44:47;0.00;99.90
48007;DHT22;33771;48.180;11.400;2022-12-15T10:47:19;0.00;99.90
48007;DHT22;33771;48.180;11.400;2022-12-15T10:49:47;0.10;99.90
48007;DHT22;33771;48.180;11.400;2022-12-15T10:52:20;0.10;99.90
48007;DHT22;33771;48.180;11.400;2022-12-15T10:54:49;0.10;99.90
48007;DHT22;33771;48.180;11.400;2022-12-15T10:57:24;0.20;99.90
48007;DHT22;33771;48.180;11.400;2022-12-15T10:59:53;0.20;99.90
48007;DHT22;33771;48.180;11.400;2022-12-15T11:02:32;0.20;99.90
48007;DHT22;33771;48.180;11.400;2022-12-15T11:07:44;0.20;99.90
48007;DHT22;33771;48.180;11.400;2022-12-15T11:10:28;0.30;99.90
48007;DHT22;33771;48.180;11.400;2022-12-15T11:13:19;0.20;99.90
48007;DHT22;33771;48.180;11.400;2022-12-15T11:15:48;0.30;99.90
48007;DHT22;33771;48.180;11.400;2022-12-15T11:18:35;0.30;99.90
48007;DHT22;33771;48.180;11.400;2022-12-15T11:21:12;0.30;99.90
48007;DHT22;33771;48.180;11.400;2022-12-15T11:27:25;0.20;99.90
48007;DHT22;33771;48.180;11.400;2022-12-15T11:29:57;0.20;99.90
48007;DHT22;33771;48.180;11.400;2022-12-15T11:32:26;0.20;99.90
48007;DHT22;33771;48.180;11.400;2022-12-15T11:34:53;0.20;99.90
48007;DHT22;33771;48.180;11.400;2022-12-15T11:37:42;0.20;99.90
48007;DHT22;33771;48.180;11.400;2022-12-15T11:40:33;0.20;99.90
48007;DHT22;33771;48.180;11.400;2022-12-15T11:54:58;0.00;99.90
48007;DHT22;33771;48.180;11.400;2022-12-15T12:00:14;0.00;99.90
48007;DHT22;33771;48.180;11.400;2022-12-15T12:09:04;-0.10;99.90
48007;DHT22;33771;48.180;11.400;2022-12-15T12:11:54;-0.10;99.90
48007;DHT22;33771;48.180;11.400;2022-12-15T12:14:33;-0.10;99.90
48007;DHT22;33771;48.180;11.400;2022-12-15T12:19:57;-0.20;99.90
48007;DHT22;33771;48.180;11.400;2022-12-15T12:22:35;-0.30;99.90
48007;DHT22;33771;48.180;11.400;2022-12-15T12:25:24;-0.30;99.90
48007;DHT22;33771;48.180;11.400;2022-12-15T12:27:55;-0.30;99.90
48007;DHT22;33771;48.180;11.400;2022-12-15T12:30:24;-0.20;99.90
48007;DHT22;33771;48.180;11.400;2022-12-15T12:35:45;-0.30;99.90
48007;DHT22;33771;48.180;11.400;2022-12-15T12:38:13;-0.40;99.90
48007;DHT22;33771;48.180;11.400;2022-12-15T12:43:54;-0.40;99.90
48007;DHT22;33771;48.180;11.400;2022-12-15T12:46:31;-0.40;99.90
48007;DHT22;33771;48.180;11.400;2022-12-15T12:49:18;-0.50;99.90
48007;DHT22;33771;48.180;11.400;2022-12-15T12:52:01;-0.50;99.90
48007;DHT22;33771;48.180;11.400;2022-12-15T12:57:32;-0.50;99.90
48007;DHT22;33771;48.180;11.400;2022-12-15T13:02:47;-0.50;99.90
48007;DHT22;33771;48.180;11.400;2022-12-15T13:05:31;-0.50;99.90
48007;DHT22;33771;48.180;11.400;2022-12-15T13:10:40;-0.50;99.90
48007;DHT22;33771;48.180;11.400;2022-12-15T13:19:02;-0.60;99.90
48007;DHT22;33771;48.180;11.400;2022-12-15T13:26:49;-0.60;99.90
48007;DHT22;33771;48.180;11.400;2022-12-15T13:29:17;-0.60;99.90
48007;DHT22;33771;48.180;11.400;2022-12-15T13:31:48;-0.60;99.90
48007;DHT22;33771;48.180;11.400;2022-12-15T13:34:19;-0.60;99.90
48007;DHT22;33771;48.180;11.400;2022-12-15T13:36:48;-0.60;99.90
48007;DHT22;33771;48.180;11.400;2022-12-15T13:46:54;-0.80;99.90
48007;DHT22;33771;48.180;11.400;2022-12-15T13:49:30;-0.80;99.90
48007;DHT22;33771;48.180;11.400;2022-12-15T13:52:00;-0.80;99.90
48007;DHT22;33771;48.180;11.400;2022-12-15T13:54:34;-0.80;99.90
48007;DHT22;33771;48.180;11.400;2022-12-15T13:57:11;-0.90;99.90
48007;DHT22;33771;48.180;11.400;2022-12-15T14:02:23;-0.90;99.90
48007;DHT22;33771;48.180;11.400;2022-12-15T14:05:14;-1.00;99.90
48007;DHT22;33771;48.180;11.400;2022-12-15T14:07:47;-1.00;99.90
48007;DHT22;33771;48.180;11.400;2022-12-15T14:10:20;-1.00;99.90
48007;DHT22;33771;48.180;11.400;2022-12-15T14:12:48;-1.00;99.90
48007;DHT22;33771;48.180;11.400;2022-12-15T14:15:16;-1.10;99.90
48007;DHT22;33771;48.180;11.400;2022-12-15T14:17:47;-1.10;99.90
48007;DHT22;33771;48.180;11.400;2022-12-15T14:20:20;-1.10;99.90
48007;DHT22;33771;48.180;11.400;2022-12-15T14:22:45;-1.10;99.90
48007;DHT22;33771;48.180;11.400;2022-12-15T14:27:39;-1.20;99.90
48007;DHT22;33771;48.180;11.400;2022-12-15T14:32:41;-1.20;99.90
48007;DHT22;33771;48.180;11.400;2022-12-15T14:35:13;-1.30;99.90
48007;DHT22;33771;48.180;11.400;2022-12-15T14:37:42;-1.20;99.90
48007;DHT22;33771;48.180;11.400;2022-12-15T14:40:15;-1.20;99.90
48007;DHT22;33771;48.180;11.400;2022-12-15T14:42:42;-1.20;99.90
48007;DHT22;33771;48.180;11.400;2022-12-15T14:45:37;-1.20;99.90
48007;DHT22;33771;48.180;11.400;2022-12-15T14:48:07;-1.20;99.90
48007;DHT22;33771;48.180;11.400;2022-12-15T14:50:34;-1.30;99.90
48007;DHT22;33771;48.180;11.400;2022-12-15T14:53:14;-1.20;99.90
48007;DHT22;33771;48.180;11.400;2022-12-15T14:55:40;-1.30;99.90
48007;DHT22;33771;48.180;11.400;2022-12-15T14:58:33;-1.30;99.90
48007;DHT22;33771;48.180;11.400;2022-12-15T15:01:00;-1.20;99.90
48007;DHT22;33771;48.180;11.400;2022-12-15T15:03:36;-1.20;99.90
48007;DHT22;33771;48.180;11.400;2022-12-15T15:08:33;-1.30;99.90
48007;DHT22;33771;48.180;11.400;2022-12-15T15:11:03;-1.30;99.90
48007;DHT22;33771;48.180;11.400;2022-12-15T15:13:44;-1.30;99.90
48007;DHT22;33771;48.180;11.400;2022-12-15T15:16:15;-1.30;99.90
48007;DHT22;33771;48.180;11.400;2022-12-15T15:18:42;-1.30;99.90
48007;DHT22;33771;48.180;11.400;2022-12-15T15:21:16;-1.30;99.90
48007;DHT22;33771;48.180;11.400;2022-12-15T15:24:00;-1.30;99.90
48007;DHT22;33771;48.180;11.400;2022-12-15T15:26:26;-1.30;99.90
48007;DHT22;33771;48.180;11.400;2022-12-15T15:28:53;-1.30;99.90
48007;DHT22;33771;48.180;11.400;2022-12-15T15:33:56;-1.30;99.90
48007;DHT22;33771;48.180;11.400;2022-12-15T15:36:24;-1.30;99.90
48007;DHT22;33771;48.180;11.400;2022-12-15T15:38:53;-1.40;99.90
48007;DHT22;33771;48.180;11.400;2022-12-15T15:41:29;-1.30;99.90
48007;DHT22;33771;48.180;11.400;2022-12-15T15:43:56;-1.30;99.90
48007;DHT22;33771;48.180;11.400;2022-12-15T15:46:28;-1.30;99.90
48007;DHT22;33771;48.180;11.400;2022-12-15T15:49:00;-1.30;99.90
48007;DHT22;33771;48.180;11.400;2022-12-15T15:51:28;-1.30;99.90
48007;DHT22;33771;48.180;11.400;2022-12-15T15:53:59;-1.30;99.90
48007;DHT22;33771;48.180;11.400;2022-12-15T15:56:25;-1.30;99.90
48007;DHT22;33771;48.180;11.400;2022-12-15T15:58:52;-1.30;99.90
48007;DHT22;33771;48.180;11.400;2022-12-15T16:01:18;-1.30;99.90
48007;DHT22;33771;48.180;11.400;2022-12-15T16:03:43;-1.30;99.90
48007;DHT22;33771;48.180;11.400;2022-12-15T16:06:16;-1.30;99.90
48007;DHT22;33771;48.180;11.400;2022-12-15T16:08:44;-1.30;99.90
48007;DHT22;33771;48.180;11.400;2022-12-15T16:11:10;-1.30;99.90
48007;DHT22;33771;48.180;11.400;2022-12-15T16:13:36;-1.20;99.90
48007;DHT22;33771;48.180;11.400;2022-12-15T16:16:03;-1.30;99.90
48007;DHT22;33771;48.180;11.400;2022-12-15T16:18:28;-1.30;99.90
48007;DHT22;33771;48.180;11.400;2022-12-15T16:20:54;-1.30;99.90
48007;DHT22;33771;48.180;11.400;2022-12-15T16:23:22;-1.30;99.90
48007;DHT22;33771;48.180;11.400;2022-12-15T16:25:53;-1.30;99.90
48007;DHT22;33771;48.180;11.400;2022-12-15T16:28:24;-1.30;99.90
48007;DHT22;33771;48.180;11.400;2022-12-15T16:30:50;-1.30;99.90
48007;DHT22;33771;48.180;11.400;2022-12-15T16:33:16;-1.20;99.90
48007;DHT22;33771;48.180;11.400;2022-12-15T16:35:43;-1.30;99.90
48007;DHT22;33771;48.180;11.400;2022-12-15T16:38:23;-1.30;99.90
48007;DHT22;33771;48.180;11.400;2022-12-15T16:40:50;-1.30;99.90
48007;DHT22;33771;48.180;11.400;2022-12-15T16:43:20;-1.30;99.90
48007;DHT22;33771;48.180;11.400;2022-12-15T16:45:48;-1.30;99.90
48007;DHT22;33771;48.180;11.400;2022-12-15T16:48:14;-1.30;99.90
48007;DHT22;33771;48.180;11.400;2022-12-15T16:50:43;-1.30;99.90
48007;DHT22;33771;48.180;11.400;2022-12-15T16:53:17;-1.30;99.90
48007;DHT22;33771;48.180;11.400;2022-12-15T16:55:46;-1.30;99.90
48007;DHT22;33771;48.180;11.400;2022-12-15T16:58:15;-1.30;99.90
48007;DHT22;33771;48.180;11.400;2022-12-15T17:00:42;-1.30;99.90
48007;DHT22;33771;48.180;11.400;2022-12-15T17:03:12;-1.30;99.90
48007;DHT22;33771;48.180;11.400;2022-12-15T17:05:38;-1.30;99.90
48007;DHT22;33771;48.180;11.400;2022-12-15T17:08:06;-1.20;99.90
48007;DHT22;33771;48.180;11.400;2022-12-15T17:10:33;-1.30;99.90
48007;DHT22;33771;48.180;11.400;2022-12-15T17:13:30;-1.20;99.90
48007;DHT22;33771;48.180;11.400;2022-12-15T17:15:56;-1.30;99.90
48007;DHT22;33771;48.180;11.400;2022-12-15T17:18:23;-1.20;99.90
48007;DHT22;33771;48.180;11.400;2022-12-15T17:20:48;-1.20;99.90
48007;DHT22;33771;48.180;11.400;2022-12-15T17:23:21;-1.30;99.90
48007;DHT22;33771;48.180;11.400;2022-12-15T17:25:48;-1.30;99.90
48007;DHT22;33771;48.180;11.400;2022-12-15T17:28:17;-1.30;99.90
48007;DHT22;33771;48.180;11.400;2022-12-15T17:30:46;-1.30;99.90
48007;DHT22;33771;48.180;11.400;2022-12-15T17:33:23;-1.20;99.90
48007;DHT22;33771;48.180;11.400;2022-12-15T17:35:51;-1.30;99.90
48007;DHT22;33771;48.180;11.400;2022-12-15T17:38:19;-1.20;99.90